Time;durP1;ratioP1;P1;durP2;ratioP2;P2;SDS_P1;SDS_P2;PMS_P1;PMS_P2;Temp;Humidity;BMP_temperature;BMP_pressure;BME280_temperature;BME280_humidity;BME280_pressure;Samples;Min_cycle;Max_cycle;Signal;HPM_P1;HPM_P2
2022/06/08 00:00:19;;;;;;;8.23;5.60;;;13.10;99.90;;;;;;4953467;28;102504;-70
2022/06/08 00:02:49;;;;;;;7.10;5.50;;;13.10;99.90;;;;;;4955654;28;99822;-70
2022/06/08 00:05:16;;;;;;;6.90;6.10;;;13.10;99.90;;;;;;4955711;28;98521;-70
2022/06/08 00:07:44;;;;;;;9.25;5.80;;;13.00;99.90;;;;;;4938256;28;98563;-70
2022/06/08 00:10:11;;;;;;;5.95;5.32;;;13.00;99.90;;;;;;4937927;28;99087;-70
2022/06/08 00:12:38;;;;;;;7.97;6.63;;;13.00;99.90;;;;;;4937801;28;101571;-70
2022/06/08 00:15:07;;;;;;;9.95;5.68;;;13.00;99.90;;;;;;4938050;28;98588;-70
2022/06/08 00:17:35;;;;;;;10.55;5.70;;;13.00;99.90;;;;;;4954482;28;97860;-70
2022/06/08 00:20:04;;;;;;;9.18;6.53;;;13.00;99.90;;;;;;4937843;28;99260;-70
2022/06/08 00:22:31;;;;;;;8.88;6.60;;;13.00;99.90;;;;;;4937503;28;101527;-70
2022/06/08 00:24:59;;;;;;;10.45;6.88;;;13.00;99.90;;;;;;4937592;28;99230;-70
2022/06/08 00:27:26;;;;;;;12.38;6.70;;;13.00;99.90;;;;;;4955743;28;99094;-70
2022/06/08 00:29:53;;;;;;;10.20;6.50;;;13.00;99.90;;;;;;4937383;28;101797;-70
2022/06/08 00:32:20;;;;;;;7.47;5.95;;;13.00;99.90;;;;;;4937239;28;101450;-70
2022/06/08 00:34:47;;;;;;;10.27;6.95;;;12.90;99.90;;;;;;4937754;28;98545;-70
2022/06/08 00:37:14;;;;;;;6.95;6.25;;;13.00;99.90;;;;;;4937692;28;98978;-70
2022/06/08 00:39:41;;;;;;;11.15;6.78;;;12.90;99.90;;;;;;4955091;28;99288;-70
2022/06/08 00:42:11;;;;;;;8.55;7.07;;;12.90;99.90;;;;;;4955229;28;99040;-70
2022/06/08 00:44:47;;;;;;;12.00;7.07;;;12.90;99.90;;;;;;4953992;28;98600;-70
2022/06/08 00:47:20;;;;;;;8.95;6.10;;;12.90;99.90;;;;;;4937337;28;98536;-70
2022/06/08 00:49:50;;;;;;;8.95;6.72;;;12.90;99.90;;;;;;4936940;28;102571;-70
2022/06/08 00:52:17;;;;;;;10.43;6.90;;;12.80;99.90;;;;;;4936043;28;103111;-70
2022/06/08 00:54:52;;;;;;;8.02;6.20;;;12.80;99.90;;;;;;4953394;28;102049;-70
2022/06/08 00:57:24;;;;;;;16.50;7.80;;;12.90;99.90;;;;;;4953412;28;98558;-70
2022/06/08 00:59:57;;;;;;;12.18;8.43;;;12.80;99.90;;;;;;4953399;28;101773;-70
2022/06/08 01:02:24;;;;;;;10.98;7.53;;;12.80;99.90;;;;;;4954795;28;99602;-70
2022/06/08 01:05:19;;;;;;;11.52;7.35;;;12.80;99.90;;;;;;4921362;28;98709;-70
2022/06/08 01:07:48;;;;;;;8.75;6.53;;;12.80;99.90;;;;;;4937406;28;97839;-70
2022/06/08 01:10:22;;;;;;;9.95;6.53;;;12.70;99.90;;;;;;4936733;28;101292;-70
2022/06/08 01:12:50;;;;;;;7.43;6.30;;;12.70;99.90;;;;;;4953145;28;101296;-70
2022/06/08 01:15:22;;;;;;;8.30;7.05;;;12.60;99.90;;;;;;4936120;28;99398;-70
2022/06/08 01:17:49;;;;;;;7.53;6.07;;;12.60;99.90;;;;;;4936980;28;98550;-70
2022/06/08 01:20:20;;;;;;;9.50;6.47;;;12.60;99.90;;;;;;4936176;28;102039;-70
2022/06/08 01:22:47;;;;;;;8.93;7.68;;;12.60;99.90;;;;;;4936493;28;101451;-70
2022/06/08 01:25:15;;;;;;;7.65;6.70;;;12.50;99.90;;;;;;4920949;28;99044;-70
2022/06/08 01:28:25;;;;;;;8.85;6.65;;;12.50;99.90;;;;;;4953191;28;98662;-70
2022/06/08 01:31:10;;;;;;;8.07;7.22;;;12.60;99.90;;;;;;4936453;28;101924;-70
2022/06/08 01:34:05;;;;;;;8.75;7.90;;;12.50;99.90;;;;;;4953138;28;102003;-70
2022/06/08 01:37:16;;;;;;;8.70;7.93;;;12.50;99.90;;;;;;4954857;28;98519;-70
2022/06/08 01:39:52;;;;;;;9.48;8.57;;;12.50;99.90;;;;;;4893988;28;99040;-70
2022/06/08 01:42:48;;;;;;;12.40;8.82;;;12.50;99.90;;;;;;4893149;28;102954;-70
2022/06/08 01:45:30;;;;;;;12.45;8.52;;;12.50;99.90;;;;;;4921514;28;100696;-70
2022/06/08 01:48:18;;;;;;;12.93;9.52;;;12.50;99.90;;;;;;4954521;28;98568;-70
2022/06/08 01:51:06;;;;;;;14.30;9.18;;;12.50;99.90;;;;;;4936556;28;98622;-70
2022/06/08 01:53:51;;;;;;;14.95;9.98;;;12.50;99.90;;;;;;4936028;28;101910;-70
2022/06/08 01:56:26;;;;;;;15.52;10.25;;;12.50;99.90;;;;;;4951832;28;101065;-70
2022/06/08 01:59:19;;;;;;;13.38;11.02;;;12.60;99.90;;;;;;4935497;28;98610;-70
2022/06/08 02:01:55;;;;;;;13.20;10.33;;;12.60;99.90;;;;;;4936394;28;97911;-70
2022/06/08 02:04:26;;;;;;;15.07;11.38;;;12.70;99.90;;;;;;4935303;28;100262;-70
2022/06/08 02:07:13;;;;;;;13.48;11.50;;;12.70;99.90;;;;;;4951836;28;100334;-70
2022/06/08 02:09:48;;;;;;;14.38;11.15;;;12.80;99.90;;;;;;4935511;28;99419;-70
2022/06/08 02:12:18;;;;;;;19.48;11.80;;;12.70;99.90;;;;;;4951837;28;99012;-70
2022/06/08 02:14:54;;;;;;;13.90;10.55;;;12.80;99.90;;;;;;4935455;28;100317;-70
2022/06/08 02:17:37;;;;;;;16.95;12.32;;;12.90;99.90;;;;;;4934814;28;101708;-70
2022/06/08 02:20:15;;;;;;;13.95;11.35;;;12.90;99.90;;;;;;4935546;28;98567;-70
2022/06/08 02:22:52;;;;;;;16.33;12.20;;;12.80;99.90;;;;;;4935453;28;98608;-70
2022/06/08 02:25:40;;;;;;;14.90;12.90;;;12.90;99.90;;;;;;4934997;28;101616;-70
2022/06/08 02:28:19;;;;;;;18.80;13.00;;;12.90;99.90;;;;;;4935546;28;101740;-70
2022/06/08 02:31:02;;;;;;;18.80;13.93;;;12.90;99.90;;;;;;4951792;28;98605;-70
2022/06/08 02:36:49;;;;;;;19.65;12.65;;;12.80;99.90;;;;;;4930417;28;100097;-70
2022/06/08 02:39:29;;;;;;;18.90;13.25;;;12.90;99.90;;;;;;4934115;28;102150;-70
2022/06/08 02:42:04;;;;;;;16.08;12.48;;;13.00;99.90;;;;;;4935351;28;98647;-70
2022/06/08 02:44:33;;;;;;;19.67;12.95;;;13.00;99.90;;;;;;4935017;28;98666;-70
2022/06/08 02:47:06;;;;;;;16.63;12.45;;;13.10;99.90;;;;;;4934859;28;101647;-70
2022/06/08 02:49:37;;;;;;;19.63;14.18;;;13.20;99.90;;;;;;4952453;28;99029;-70
2022/06/08 02:52:21;;;;;;;18.83;13.93;;;13.20;99.90;;;;;;4951439;28;98516;-70
2022/06/08 02:54:53;;;;;;;18.08;12.88;;;13.30;99.90;;;;;;4948526;28;98042;-70
2022/06/08 02:57:37;;;;;;;18.33;14.60;;;13.30;99.90;;;;;;4931324;28;101390;-70
2022/06/08 03:00:21;;;;;;;17.92;14.18;;;13.40;99.90;;;;;;4931665;28;101563;-70
2022/06/08 03:02:58;;;;;;;22.45;14.35;;;13.50;99.90;;;;;;4947852;28;99459;-70
2022/06/08 03:05:33;;;;;;;17.48;13.25;;;13.40;99.90;;;;;;4931549;28;98518;-70
2022/06/08 03:08:12;;;;;;;16.23;13.20;;;13.50;99.90;;;;;;4931783;28;99073;-70
2022/06/08 03:10:41;;;;;;;19.63;14.02;;;13.50;99.90;;;;;;4932701;28;98868;-70
2022/06/08 03:13:15;;;;;;;18.35;14.18;;;13.60;99.90;;;;;;4915960;28;98532;-70
2022/06/08 03:15:47;;;;;;;19.17;13.82;;;13.60;99.90;;;;;;4937903;28;98608;-70
2022/06/08 03:18:15;;;;;;;22.40;15.55;;;13.60;99.90;;;;;;4937640;28;101668;-70
2022/06/08 03:20:43;;;;;;;19.08;14.77;;;13.60;99.90;;;;;;4954174;28;101942;-70
2022/06/08 03:23:11;;;;;;;19.27;15.23;;;13.70;99.90;;;;;;4938107;28;98962;-70
2022/06/08 03:25:39;;;;;;;19.45;15.43;;;13.70;99.90;;;;;;4954164;28;99681;-70
2022/06/08 03:28:07;;;;;;;20.30;14.50;;;13.70;99.90;;;;;;4937591;28;100095;-70
2022/06/08 03:30:34;;;;;;;20.85;15.52;;;13.70;99.90;;;;;;4937470;28;101877;-70
2022/06/08 03:33:02;;;;;;;17.33;14.95;;;13.70;99.90;;;;;;4954343;28;98673;-70
2022/06/08 03:35:30;;;;;;;26.50;16.63;;;13.70;99.90;;;;;;4937810;28;98606;-70
2022/06/08 03:37:59;;;;;;;19.85;15.05;;;13.80;99.90;;;;;;4937418;28;101183;-70
2022/06/08 03:40:27;;;;;;;25.77;16.27;;;13.80;99.90;;;;;;4953696;28;101173;-70
2022/06/08 03:42:55;;;;;;;21.88;15.60;;;13.80;99.90;;;;;;4937583;28;98578;-70
2022/06/08 03:45:23;;;;;;;23.08;15.60;;;13.90;99.90;;;;;;4954745;28;98560;-70
2022/06/08 03:47:52;;;;;;;20.13;15.80;;;14.00;99.90;;;;;;4953782;28;101791;-70
2022/06/08 03:50:23;;;;;;;21.45;16.00;;;14.10;99.90;;;;;;4937406;28;101538;-70
2022/06/08 03:52:58;;;;;;;18.05;14.50;;;14.10;99.90;;;;;;4938576;28;99296;-70
2022/06/08 03:55:27;;;;;;;20.05;15.65;;;14.30;99.90;;;;;;4937421;28;99044;-70
2022/06/08 03:57:57;;;;;;;17.67;14.98;;;14.40;99.90;;;;;;4938828;28;99315;-70
2022/06/08 04:00:26;;;;;;;20.55;15.85;;;14.60;99.90;;;;;;4937175;28;101145;-70
2022/06/08 04:03:04;;;;;;;19.10;14.55;;;14.70;99.90;;;;;;4937273;28;99492;-70
2022/06/08 04:05:33;;;;;;;18.70;15.38;;;14.80;99.90;;;;;;4937499;28;99026;-70
2022/06/08 04:08:03;;;;;;;19.70;15.23;;;14.80;99.90;;;;;;4937221;28;101986;-70
2022/06/08 04:10:32;;;;;;;20.50;16.30;;;14.90;99.90;;;;;;4953571;28;101422;-70
2022/06/08 04:12:59;;;;;;;18.65;15.18;;;14.80;99.90;;;;;;4953578;28;98478;-70
2022/06/08 04:15:44;;;;;;;20.17;15.93;;;14.80;99.90;;;;;;4953460;28;98588;-70
2022/06/08 04:18:23;;;;;;;24.73;15.35;;;14.80;99.90;;;;;;4924064;28;102368;-70
2022/06/08 04:20:57;;;;;;;23.13;16.38;;;14.70;99.90;;;;;;4953224;28;102548;-70
2022/06/08 04:23:31;;;;;;;22.02;17.40;;;14.70;99.90;;;;;;4937156;28;98506;-70
2022/06/08 04:26:00;;;;;;;20.67;16.27;;;14.70;99.90;;;;;;4950469;28;99081;-70
2022/06/08 04:28:28;;;;;;;22.55;16.38;;;14.70;99.90;;;;;;4950071;28;101221;-70
2022/06/08 04:31:00;;;;;;;18.20;16.17;;;14.80;99.90;;;;;;4933820;28;101605;-70
2022/06/08 04:33:29;;;;;;;18.63;15.75;;;14.80;99.90;;;;;;4950084;28;98655;-70
2022/06/08 04:35:56;;;;;;;21.23;15.30;;;14.80;99.90;;;;;;4934474;28;97866;-70
2022/06/08 04:38:26;;;;;;;22.27;16.13;;;14.90;99.90;;;;;;4949773;28;101989;-70
2022/06/08 04:40:53;;;;;;;21.83;16.25;;;15.00;99.90;;;;;;4933330;28;101724;-70
2022/06/08 04:43:20;;;;;;;20.50;16.58;;;15.10;99.90;;;;;;4949941;28;99747;-70
2022/06/08 04:45:48;;;;;;;17.67;14.48;;;15.30;99.90;;;;;;4950051;28;98590;-70
2022/06/08 04:48:17;;;;;;;18.17;15.18;;;15.50;99.90;;;;;;4933577;28;101921;-70
2022/06/08 04:50:44;;;;;;;18.38;14.07;;;15.60;99.90;;;;;;4949296;28;101524;-70
2022/06/08 04:53:11;;;;;;;16.00;14.25;;;15.80;99.90;;;;;;4949694;28;98550;-70
2022/06/08 04:55:41;;;;;;;15.68;13.52;;;15.90;99.90;;;;;;4933527;28;98743;-70
2022/06/08 04:58:08;;;;;;;16.88;14.13;;;15.90;99.90;;;;;;4949649;28;101684;-70
2022/06/08 05:00:36;;;;;;;20.10;14.57;;;15.90;99.90;;;;;;4917595;28;101589;-70
2022/06/08 05:03:06;;;;;;;17.40;15.10;;;16.00;99.90;;;;;;4918020;28;98958;-70
2022/06/08 05:05:39;;;;;;;17.73;14.18;;;16.10;99.90;;;;;;4949492;28;99005;-70
2022/06/08 05:08:13;;;;;;;16.02;13.57;;;16.10;99.90;;;;;;4932970;28;102637;-70
2022/06/08 05:10:44;;;;;;;16.60;13.57;;;16.10;99.90;;;;;;4933114;28;101941;-70
2022/06/08 05:13:15;;;;;;;18.90;14.95;;;16.10;99.90;;;;;;4933422;28;98742;-70
2022/06/08 05:15:45;;;;;;;19.88;15.75;;;16.10;99.90;;;;;;4917667;28;98563;-70
2022/06/08 05:18:22;;;;;;;16.75;14.82;;;16.10;99.90;;;;;;4932720;28;101998;-70
2022/06/08 05:20:53;;;;;;;21.33;15.18;;;16.20;99.90;;;;;;4932901;28;101437;-70
2022/06/08 05:23:30;;;;;;;17.25;15.15;;;16.20;99.90;;;;;;4933225;28;98554;-70
2022/06/08 05:25:59;;;;;;;17.77;14.82;;;16.30;99.90;;;;;;4949884;28;97914;-70
2022/06/08 05:28:27;;;;;;;17.05;15.20;;;16.30;99.90;;;;;;4934143;28;99753;-70
2022/06/08 05:30:58;;;;;;;17.58;14.57;;;16.40;99.90;;;;;;4948915;28;101385;-70
2022/06/08 05:33:30;;;;;;;20.38;15.90;;;16.50;99.90;;;;;;4949040;28;99289;-70
2022/06/08 05:36:03;;;;;;;19.03;15.17;;;16.50;99.90;;;;;;4932956;28;98645;-70
2022/06/08 05:38:30;;;;;;;18.63;15.15;;;16.50;99.90;;;;;;4948447;28;101774;-70
2022/06/08 05:40:57;;;;;;;19.17;15.57;;;16.50;99.90;;;;;;4948580;28;102190;-70
2022/06/08 05:43:26;;;;;;;19.65;16.13;;;16.50;99.90;;;;;;4933069;28;98618;-70
2022/06/08 05:45:54;;;;;;;20.95;16.02;;;16.40;99.90;;;;;;4932696;28;98570;-70
2022/06/08 05:48:23;;;;;;;20.17;16.90;;;16.40;99.90;;;;;;4932781;28;101258;-71
2022/06/08 05:50:50;;;;;;;20.63;17.30;;;16.50;99.90;;;;;;4948966;28;101587;-70
2022/06/08 05:53:20;;;;;;;20.85;16.98;;;16.50;99.90;;;;;;4949041;28;98550;-70
2022/06/08 05:55:48;;;;;;;19.17;15.45;;;16.70;99.90;;;;;;4931967;28;99262;-71
2022/06/08 05:58:16;;;;;;;20.27;16.75;;;16.80;99.90;;;;;;4948342;28;102387;-70
2022/06/08 06:00:45;;;;;;;20.02;17.80;;;16.90;99.90;;;;;;4916470;28;102308;-71
2022/06/08 06:03:18;;;;;;;20.98;18.23;;;17.10;99.90;;;;;;4948999;28;98600;-70
2022/06/08 06:05:46;;;;;;;19.90;17.58;;;17.30;99.90;;;;;;4932374;28;98571;-71
2022/06/08 06:08:16;;;;;;;18.77;16.27;;;17.50;99.90;;;;;;4932175;28;101618;-71
2022/06/08 06:10:47;;;;;;;17.80;15.88;;;17.60;99.90;;;;;;4933628;28;99187;-71
2022/06/08 06:13:20;;;;;;;18.08;16.13;;;17.80;99.90;;;;;;4948915;28;98569;-71
2022/06/08 06:15:51;;;;;;;21.63;17.23;;;18.00;99.90;;;;;;4948851;28;97846;-70
2022/06/08 06:18:19;;;;;;;19.95;16.27;;;18.10;99.90;;;;;;4931984;28;102003;-70
2022/06/08 06:20:56;;;;;;;18.85;16.63;;;18.30;99.80;;;;;;4931744;28;101752;-71
2022/06/08 06:23:46;;;;;;;18.77;15.52;;;18.50;99.70;;;;;;4934523;28;100085;-71
2022/06/08 06:26:29;;;;;;;19.77;16.23;;;18.60;99.30;;;;;;4933999;28;98577;-71
2022/06/08 06:29:15;;;;;;;19.00;17.00;;;18.70;99.10;;;;;;4933334;28;98911;-71
2022/06/08 06:32:12;;;;;;;19.88;15.45;;;18.70;99.20;;;;;;4931664;28;100918;-70
2022/06/08 06:34:45;;;;;;;17.38;15.73;;;18.80;99.10;;;;;;4932175;28;98624;-70
2022/06/08 06:37:13;;;;;;;17.23;15.50;;;18.80;99.20;;;;;;4933785;28;98567;-70
2022/06/08 06:39:40;;;;;;;19.00;15.38;;;18.90;99.10;;;;;;4931443;28;100349;-70
2022/06/08 06:42:19;;;;;;;15.10;13.60;;;19.00;99.10;;;;;;4944917;28;101583;-70
2022/06/08 06:44:54;;;;;;;17.33;15.45;;;19.20;99.00;;;;;;4948090;28;98611;-70
2022/06/08 06:47:39;;;;;;;17.80;15.98;;;19.30;98.90;;;;;;4948458;28;98463;-70
2022/06/08 06:50:18;;;;;;;20.35;15.57;;;19.60;98.50;;;;;;4946820;28;102459;-70
2022/06/08 06:52:46;;;;;;;17.33;15.68;;;19.70;98.00;;;;;;4947789;28;102267;-70
2022/06/08 06:55:26;;;;;;;16.80;15.13;;;19.90;98.00;;;;;;4956725;28;98535;-70
2022/06/08 06:57:57;;;;;;;16.83;14.90;;;20.10;97.50;;;;;;4967524;28;99084;-71
2022/06/08 07:00:29;;;;;;;16.50;14.20;;;20.20;97.50;;;;;;4967068;28;101176;-70
2022/06/08 07:02:59;;;;;;;15.48;14.07;;;20.20;97.30;;;;;;4951304;28;101766;-70
2022/06/08 07:05:31;;;;;;;14.73;13.32;;;20.30;97.30;;;;;;4967671;28;98649;-70
2022/06/08 07:07:59;;;;;;;15.23;12.60;;;20.40;97.10;;;;;;4951521;28;97777;-70
2022/06/08 07:10:26;;;;;;;15.25;13.80;;;20.40;97.10;;;;;;4966978;28;101877;-70
2022/06/08 07:12:53;;;;;;;14.50;13.18;;;20.50;96.80;;;;;;4934229;28;101444;-70
2022/06/08 07:15:23;;;;;;;15.13;13.63;;;20.60;96.90;;;;;;4966989;28;99258;-70
2022/06/08 07:17:51;;;;;;;15.43;13.82;;;20.80;96.70;;;;;;4967653;28;98580;-70
2022/06/08 07:20:20;;;;;;;16.95;15.25;;;20.90;96.60;;;;;;4919012;28;101755;-70
2022/06/08 07:22:50;;;;;;;15.32;13.82;;;20.90;96.60;;;;;;4967161;28;101476;-70
2022/06/08 07:25:18;;;;;;;16.65;15.05;;;21.10;96.70;;;;;;4952232;28;98612;-70
2022/06/08 07:27:46;;;;;;;14.23;12.77;;;21.30;96.60;;;;;;4952538;28;98569;-70
2022/06/08 07:30:14;;;;;;;14.25;12.93;;;21.40;96.50;;;;;;4950403;28;101853;-70
2022/06/08 07:32:42;;;;;;;14.75;12.85;;;21.60;96.20;;;;;;4952420;28;99022;-70
2022/06/08 07:35:09;;;;;;;13.95;12.55;;;21.60;96.10;;;;;;4952122;28;98501;-70
2022/06/08 07:37:36;;;;;;;14.57;13.02;;;21.70;95.80;;;;;;4951201;28;99341;-70
2022/06/08 07:40:04;;;;;;;11.90;10.43;;;21.70;95.40;;;;;;4949947;28;99981;-70
2022/06/08 07:42:31;;;;;;;11.90;10.80;;;21.80;95.50;;;;;;4967041;28;102351;-71
2022/06/08 07:45:00;;;;;;;12.35;10.85;;;21.90;95.40;;;;;;4967163;28;98615;-70
2022/06/08 07:47:27;;;;;;;10.25;9.32;;;22.10;95.10;;;;;;4967235;28;98614;-70
2022/06/08 07:50:09;;;;;;;11.45;10.35;;;22.30;94.80;;;;;;4963159;28;99391;-71
2022/06/08 07:53:11;;;;;;;10.73;9.73;;;22.50;94.40;;;;;;4951593;28;99086;-71
2022/06/08 07:55:45;;;;;;;10.68;9.75;;;22.70;93.90;;;;;;4967023;28;98699;-71
2022/06/08 07:58:12;;;;;;;11.07;10.00;;;22.80;93.80;;;;;;4967702;28;97827;-71
2022/06/08 08:00:43;;;;;;;9.52;8.73;;;23.00;93.80;;;;;;4951868;28;101819;-70
2022/06/08 08:03:10;;;;;;;8.60;7.57;;;23.30;93.60;;;;;;4955543;28;98740;-71
2022/06/08 08:05:38;;;;;;;8.98;8.27;;;23.60;93.20;;;;;;4954533;28;99463;-71
2022/06/08 08:08:05;;;;;;;7.70;7.10;;;24.10;92.70;;;;;;4955748;28;98500;-71
2022/06/08 08:10:32;;;;;;;6.82;6.20;;;24.50;91.40;;;;;;4955625;28;99241;-71
2022/06/08 08:12:59;;;;;;;5.45;4.82;;;25.10;90.40;;;;;;4955457;28;99592;-71
2022/06/08 08:15:27;;;;;;;5.22;4.82;;;25.60;88.70;;;;;;4970592;28;98638;-71
2022/06/08 08:17:54;;;;;;;4.65;4.25;;;26.10;87.50;;;;;;4955836;28;98515;-71
2022/06/08 08:20:23;;;;;;;4.72;4.32;;;26.80;85.10;;;;;;4970020;28;101834;-71
2022/06/08 08:22:51;;;;;;;5.07;4.70;;;27.20;81.70;;;;;;4970423;28;101566;-71
2022/06/08 08:25:19;;;;;;;4.88;4.47;;;27.50;79.70;;;;;;4970690;28;99778;-71
2022/06/08 08:27:46;;;;;;;5.63;5.13;;;28.00;78.10;;;;;;4970325;28;98531;-71
2022/06/08 08:30:16;;;;;;;5.25;4.85;;;28.60;77.20;;;;;;4954475;28;99967;-71
2022/06/08 08:32:43;;;;;;;5.40;5.00;;;29.20;75.10;;;;;;4969708;28;102644;-71
2022/06/08 08:35:10;;;;;;;5.10;4.70;;;29.70;72.60;;;;;;4937665;28;98632;-71
2022/06/08 08:37:38;;;;;;;5.75;5.45;;;30.30;69.70;;;;;;4954391;28;98948;-71
2022/06/08 08:40:13;;;;;;;4.35;4.07;;;30.60;68.20;;;;;;4954976;28;99353;-71
2022/06/08 08:42:41;;;;;;;5.30;4.90;;;30.90;66.80;;;;;;4955114;28;98928;-71
2022/06/08 08:45:13;;;;;;;4.28;3.88;;;30.80;65.20;;;;;;4954709;28;98564;-71
2022/06/08 08:47:47;;;;;;;;;;;31.00;65.30;;;;;;4956389;28;98282;-71
2022/06/08 08:50:26;;;;;;;3.80;3.50;;;30.60;63.30;;;;;;4954680;28;99281;-71
2022/06/08 08:53:11;;;;;;;4.35;4.05;;;30.80;64.10;;;;;;4954560;28;98938;-71
2022/06/08 08:56:13;;;;;;;4.78;4.38;;;30.50;64.10;;;;;;4954700;28;99303;-72
2022/06/08 08:58:43;;;;;;;3.50;3.30;;;30.30;64.10;;;;;;4955101;28;98777;-72
2022/06/08 09:01:33;;;;;;;3.28;3.03;;;30.10;64.30;;;;;;4952970;28;101102;-72
2022/06/08 09:04:14;;;;;;;2.72;2.53;;;30.30;63.60;;;;;;4953524;28;101563;-71
2022/06/08 09:06:41;;;;;;;3.80;3.50;;;30.30;64.20;;;;;;4953816;28;99065;-72
2022/06/08 09:09:23;;;;;;;5.00;2.67;;;30.30;64.00;;;;;;4953938;28;98536;-71
2022/06/08 09:11:50;;;;;;;3.60;3.07;;;30.40;62.60;;;;;;4953923;28;99262;-71
2022/06/08 09:14:57;;;;;;;3.00;2.75;;;30.10;63.20;;;;;;4954090;28;99054;-72
2022/06/08 09:17:52;;;;;;;2.83;2.63;;;30.00;64.10;;;;;;4954961;28;98610;-72
2022/06/08 09:20:26;;;;;;;3.22;2.72;;;29.70;64.00;;;;;;4969491;28;98500;-71
2022/06/08 09:22:55;;;;;;;3.83;3.53;;;29.20;65.30;;;;;;4952559;28;102568;-72
2022/06/08 09:25:29;;;;;;;4.13;3.75;;;29.00;65.80;;;;;;4969138;28;102330;-71
2022/06/08 09:27:58;;;;;;;3.75;2.72;;;28.90;65.90;;;;;;4953370;28;98600;-71
2022/06/08 09:30:48;;;;;;;3.38;3.17;;;28.80;66.20;;;;;;4954659;28;98519;-71
2022/06/08 09:33:23;;;;;;;3.70;2.63;;;28.80;67.00;;;;;;4954263;28;99402;-72
2022/06/08 09:35:57;;;;;;;2.33;2.13;;;28.70;67.20;;;;;;4954485;28;99148;-71
2022/06/08 09:38:27;;;;;;;3.40;2.30;;;28.60;66.50;;;;;;4954733;28;99077;-71
2022/06/08 09:41:09;;;;;;;6.13;2.80;;;28.60;66.70;;;;;;4954873;28;98515;-71
2022/06/08 09:43:54;;;;;;;3.13;2.70;;;28.30;66.80;;;;;;4953936;28;99131;-71
2022/06/08 09:52:53;;;;;;;4.03;2.20;;;27.80;68.30;;;;;;4951518;28;98654;-71
2022/06/08 09:55:39;;;;;;;2.15;1.80;;;27.70;69.20;;;;;;4953217;28;103843;-71
2022/06/08 09:58:30;;;;;;;4.05;3.15;;;27.80;69.20;;;;;;4952570;28;100161;-71
2022/06/08 10:01:09;;;;;;;5.07;4.28;;;27.70;69.70;;;;;;4953118;28;98587;-71
2022/06/08 10:04:12;;;;;;;5.05;4.60;;;27.60;70.00;;;;;;4954177;28;98491;-71
2022/06/08 10:06:42;;;;;;;;;;;27.40;70.40;;;;;;4954392;28;99134;-71
2022/06/08 10:09:38;;;;;;;5.55;4.70;;;26.80;71.30;;;;;;4955440;28;98548;-71
2022/06/08 10:12:49;;;;;;;5.90;4.40;;;26.60;72.90;;;;;;4944493;28;98527;-71
2022/06/08 10:15:51;;;;;;;6.30;4.93;;;26.50;73.40;;;;;;4954077;28;98529;-71
2022/06/08 10:18:35;;;;;;;4.47;3.90;;;26.20;73.60;;;;;;4949995;28;100010;-71
2022/06/08 10:21:24;;;;;;;5.88;4.35;;;26.30;73.80;;;;;;4952346;28;99798;-71
2022/06/08 10:24:17;;;;;;;4.95;4.60;;;26.60;74.10;;;;;;4952934;28;98587;-71
2022/06/08 10:26:52;;;;;;;3.20;2.92;;;26.80;73.40;;;;;;4953807;28;98532;-71
2022/06/08 10:29:21;;;;;;;3.65;3.10;;;26.70;72.40;;;;;;4953535;28;99303;-71
2022/06/08 10:32:12;;;;;;;3.40;3.10;;;26.60;72.80;;;;;;4953588;28;99109;-71
2022/06/08 10:34:39;;;;;;;3.97;3.42;;;26.50;73.50;;;;;;4953807;28;98615;-71
2022/06/08 10:37:22;;;;;;;4.45;3.85;;;26.40;73.80;;;;;;4969033;28;97783;-71
2022/06/08 10:39:50;;;;;;;4.38;3.75;;;26.60;73.60;;;;;;4953392;28;99383;-71
2022/06/08 10:45:45;;;;;;;3.60;3.30;;;27.00;73.20;;;;;;4953539;28;99254;-71
2022/06/08 10:48:15;;;;;;;3.30;3.00;;;27.20;71.00;;;;;;4936084;28;98582;-71
2022/06/08 10:50:46;;;;;;;3.83;3.47;;;27.20;71.40;;;;;;4952838;28;99360;-71
2022/06/08 10:56:28;;;;;;;4.35;4.05;;;27.30;70.60;;;;;;4951723;28;98669;-71
2022/06/08 10:59:07;;;;;;;3.03;2.80;;;27.30;70.60;;;;;;4968416;28;99083;-71
2022/06/08 11:01:50;;;;;;;3.53;2.90;;;27.40;70.50;;;;;;4952669;28;99266;-71
2022/06/08 11:04:30;;;;;;;5.07;3.77;;;27.60;71.10;;;;;;4967927;28;101503;-71
2022/06/08 11:07:13;;;;;;;3.63;2.92;;;27.70;69.90;;;;;;4968149;28;98714;-71
2022/06/08 11:09:48;;;;;;;2.53;2.33;;;27.70;70.20;;;;;;4967987;28;98642;-71
2022/06/08 11:12:15;;;;;;;3.83;3.60;;;27.70;70.20;;;;;;4967648;28;100005;-71
2022/06/08 11:14:50;;;;;;;3.58;3.28;;;27.70;70.00;;;;;;4951072;28;102510;-71
2022/06/08 11:17:40;;;;;;;3.10;2.80;;;27.90;69.50;;;;;;4967813;28;98687;-71
2022/06/08 11:20:27;;;;;;;2.85;2.45;;;27.80;69.10;;;;;;4953265;28;99009;-71
2022/06/08 11:23:02;;;;;;;3.90;3.53;;;27.80;69.00;;;;;;4952690;28;99215;-71
2022/06/08 11:25:33;;;;;;;2.95;2.15;;;27.80;69.00;;;;;;4952429;28;99051;-71
2022/06/08 11:28:24;;;;;;;2.67;2.47;;;27.90;68.70;;;;;;4968173;28;99152;-71
2022/06/08 11:30:54;;;;;;;2.80;2.58;;;28.00;68.90;;;;;;4951391;28;97936;-71
2022/06/08 11:33:22;;;;;;;3.33;2.90;;;28.00;67.90;;;;;;4951564;28;99374;-71
2022/06/08 11:36:06;;;;;;;2.97;2.78;;;28.00;67.50;;;;;;4952681;28;99125;-71
2022/06/08 11:38:54;;;;;;;4.75;3.58;;;28.20;67.80;;;;;;4955977;28;99348;-71
2022/06/08 11:41:30;;;;;;;3.60;2.85;;;28.60;66.70;;;;;;4956045;28;98933;-71
2022/06/08 11:44:02;;;;;;;3.38;3.00;;;28.70;66.70;;;;;;4955885;28;99343;-71
2022/06/08 11:46:43;;;;;;;4.20;2.85;;;28.70;65.80;;;;;;4955913;28;98925;-71
2022/06/08 11:49:34;;;;;;;2.80;2.60;;;28.70;65.70;;;;;;4971461;28;98568;-71
2022/06/08 11:52:19;;;;;;;3.67;3.38;;;28.70;66.00;;;;;;4938562;28;98610;-71
2022/06/08 11:54:45;;;;;;;3.13;2.92;;;28.70;66.60;;;;;;4954273;28;99270;-71
2022/06/08 11:57:17;;;;;;;4.20;2.90;;;28.60;66.20;;;;;;4955854;28;100704;-71
2022/06/08 11:59:45;;;;;;;5.82;2.28;;;28.70;65.60;;;;;;4955971;28;98454;-71
2022/06/08 12:02:21;;;;;;;3.40;3.10;;;28.50;63.80;;;;;;4938345;28;98616;-71
2022/06/08 12:04:53;;;;;;;3.22;3.00;;;28.50;64.80;;;;;;4953769;28;100041;-71
2022/06/08 12:07:47;;;;;;;3.42;2.25;;;28.20;64.00;;;;;;4970415;28;102438;-71
2022/06/08 12:10:23;;;;;;;3.17;2.90;;;28.20;65.30;;;;;;4955864;28;98532;-71
2022/06/08 12:12:53;;;;;;;4.35;3.03;;;28.10;65.90;;;;;;4954553;28;98457;-71
2022/06/08 12:15:48;;;;;;;5.22;3.25;;;28.00;66.00;;;;;;4954109;28;99395;-71
2022/06/08 12:18:21;;;;;;;3.33;1.88;;;28.10;66.40;;;;;;4954921;28;99670;-71
2022/06/08 12:21:00;;;;;;;2.83;2.60;;;27.90;66.10;;;;;;4954209;28;98527;-71
2022/06/08 12:23:40;;;;;;;2.15;2.00;;;27.70;67.00;;;;;;4956465;28;97778;-71
2022/06/08 12:26:17;;;;;;;3.33;2.45;;;27.60;66.80;;;;;;4955496;28;99447;-71
2022/06/08 12:28:49;;;;;;;3.90;3.55;;;27.40;66.90;;;;;;4955224;28;99149;-71
2022/06/08 12:31:33;;;;;;;3.08;2.55;;;27.10;67.60;;;;;;4954384;28;99257;-71
2022/06/08 12:34:32;;;;;;;5.68;3.97;;;27.00;68.40;;;;;;4970336;28;98721;-71
2022/06/08 12:37:28;;;;;;;3.53;2.60;;;26.80;68.90;;;;;;4954945;28;99347;-71
2022/06/08 12:40:15;;;;;;;7.40;2.90;;;26.40;69.10;;;;;;4970015;28;98777;-71
2022/06/08 12:42:58;;;;;;;13.07;4.47;;;26.00;73.70;;;;;;4951027;28;98568;-71
2022/06/08 12:45:36;;;;;;;7.13;3.88;;;25.50;80.70;;;;;;4954077;28;98504;-71
2022/06/08 12:48:24;;;;;;;6.63;3.17;;;25.10;85.80;;;;;;4953797;28;99477;-71
2022/06/08 12:50:53;;;;;;;4.32;3.30;;;24.50;87.00;;;;;;4969813;28;98963;-71
2022/06/08 12:53:22;;;;;;;4.68;2.03;;;24.10;87.20;;;;;;4970188;28;98554;-71
2022/06/08 12:55:52;;;;;;;7.93;2.78;;;23.70;88.80;;;;;;4954559;28;98532;-71
2022/06/08 12:58:20;;;;;;;5.88;2.90;;;23.50;89.80;;;;;;4969395;28;102001;-71
2022/06/08 13:00:54;;;;;;;5.50;2.13;;;23.30;89.90;;;;;;4969319;28;102513;-71
2022/06/08 13:03:26;;;;;;;4.47;2.28;;;23.20;90.20;;;;;;4937447;28;98618;-71
2022/06/08 13:05:54;;;;;;;3.33;2.65;;;23.00;90.50;;;;;;4953749;28;98576;-71
2022/06/08 13:08:24;;;;;;;5.35;2.15;;;22.90;91.00;;;;;;4937159;28;101985;-71
2022/06/08 13:10:52;;;;;;;3.75;2.03;;;22.80;90.90;;;;;;4954101;28;108948;-71
2022/06/08 13:13:23;;;;;;;3.95;2.92;;;22.80;91.30;;;;;;4953637;28;98644;-71
2022/06/08 13:15:51;;;;;;;3.65;2.67;;;22.80;91.40;;;;;;4953487;28;97782;-71
2022/06/08 13:18:23;;;;;;;3.92;1.80;;;22.80;91.40;;;;;;4954528;28;99350;-71
2022/06/08 13:20:52;;;;;;;4.05;2.22;;;22.80;91.50;;;;;;4954297;28;99104;-71
2022/06/08 13:23:20;;;;;;;4.05;2.00;;;22.80;91.50;;;;;;4954340;28;99448;-71
2022/06/08 13:25:49;;;;;;;5.28;3.17;;;22.90;91.60;;;;;;4952902;28;98600;-71